Date,TemperatureHighF,TemperatureAvgF,TemperatureLowF,DewpointHighF,DewpointAvgF,DewpointLowF,HumidityHigh,HumidityAvg,HumidityLow,PressureMaxIn,PressureMinIn,WindSpeedMaxMPH,WindSpeedAvgMPH,GustSpeedMaxMPH,PrecipitationSumIn
2013-2-1,36.0,29.3,21.0,34.0,23.2,17.0,99,78,61,30.34,29.81,14,6,31,0.00
2013-2-2,36.0,21.9,16.0,30.0,14.5,-29.0,100,83,10,30.34,30.00,7,0,11,0.00
2013-2-3,45.0,36.8,32.0,38.0,33.7,30.0,100,89,74,29.99,29.81,11,4,22,0.00
2013-2-4,44.0,34.8,28.0,36.0,30.5,26.0,94,85,70,30.11,29.94,8,3,14,0.00
2013-2-5,59.0,44.9,37.0,49.0,40.3,36.0,96,85,65,29.93,29.84,8,3,14,0.00
2013-2-6,56.0,44.6,35.0,42.0,38.5,-14.0,99,83,10,30.24,29.93,8,2,13,0.00
2013-2-7,42.0,36.5,33.0,40.0,34.4,-17.0,100,96,10,30.34,30.06,9,5,17,0.00
2013-2-8,56.0,40.6,34.0,52.0,38.9,34.0,100,94,75,30.06,29.80,13,8,30,0.00
2013-2-9,51.0,39.8,28.0,37.0,31.7,28.0,98,75,50,30.33,30.02,11,3,24,0.00
2013-2-10,51.0,38.2,25.0,42.0,31.9,-23.0,100,81,10,30.46,30.16,8,1,14,0.00
2013-2-11,55.0,47.2,39.0,55.0,47.0,39.0,100,100,91,30.16,29.88,10,4,21,0.00
2013-2-12,58.0,50.5,45.0,48.0,40.4,36.0,96,69,51,30.05,29.88,11,4,19,0.00
2013-2-13,48.0,44.0,40.0,47.0,43.9,39.0,100,99,95,29.94,29.62,11,2,20,0.00
2013-2-14,53.0,39.4,29.0,43.0,36.1,-14.0,100,90,10,30.03,29.80,7,1,13,0.00
2013-2-15,60.0,42.6,30.0,49.0,38.7,30.0,100,88,60,30.06,29.88,10,3,22,0.00
2013-2-16,42.0,37.6,30.0,40.0,33.8,25.0,99,86,73,29.97,29.81,13,4,26,0.00
2013-2-17,34.0,28.3,22.0,26.0,20.2,15.0,95,72,59,30.22,29.90,16,7,28,0.00
2013-2-18,53.0,33.8,15.0,38.0,25.3,-30.0,100,76,10,30.33,30.15,13,3,17,0.00
2013-2-19,47.0,41.3,37.0,47.0,38.5,29.0,100,91,56,30.15,29.81,11,6,23,0.00
2013-2-20,50.0,40.3,33.0,30.0,26.6,24.0,72,59,41,30.14,29.93,11,6,20,0.00
2013-2-21,52.0,39.0,25.0,35.0,29.1,24.0,96,69,49,30.24,30.09,8,2,13,0.00
2013-2-22,41.0,35.7,31.0,38.0,34.0,-14.0,100,95,10,30.32,30.11,5,1,12,0.00
2013-2-23,49.0,40.2,34.0,49.0,40.2,34.0,100,100,99,30.13,29.78,7,2,10,0.00
2013-2-24,58.0,47.5,38.0,44.0,40.8,35.0,100,80,50,30.02,29.78,13,3,20,0.00
2013-2-25,42.0,35.9,29.0,36.0,32.1,-20.0,100,87,10,30.19,30.03,6,1,11,0.00
2013-2-26,40.0,36.0,31.0,40.0,35.8,30.0,100,99,96,30.14,29.59,10,4,17,0.00